Aviation Digital Data Service (ADDS)

Output produced by METARs form (2013 UTC 18 January 2017)
found at http://aviationweather.gov/adds/metars/
 
KLEB 181921Z 1819/1918 VRB03KT P6SM BKN025 OVC040 
     TEMPO 1820/1824 3SM -SHSN BR BKN015 OVC040 
     FM190000 VRB03KT 5SM BR OVC012 
     FM190300 VRB03KT 3SM -SHSN BR OVC010 
     FM191200 VRB03KT 5SM BR OVC015